Dernières infos :  

21/09/2017  Mise à jour des tableaux d'analyses décadaires : rubrique climatologie
02/08/2017 Mise en ligne de la synthèse climatologique d'Août 2017 : 
CLIQUEZ ICI
01/09/2017  Mise à jour des tableaux d'analyses décadaires, mensuelles et annuelles : rubrique climatologie   

Si l'entête du tableau ne s'affiche pas correctement, => actualisez la page (F5 avec Internet Explorer, Chrome...).
Utilisez l'ascenseur sur la droite des lignes du tableau pour faire défiler verticalement les jours du mois.

TABLEAU DES DONNEES COMPLETES NOAA DE JUIN2016

DATE TEMPERATURE
sous abri
TEMPARATURE 
au sol
VENT  et  Indice de Refroidissement Eolien  PRECIPITATIONS (en mm/m2)
et Intensité
PRESSION ATMOSPHERIQUE (en hPa) HUMIDITE de l'AIR RADIATIONS SOLAIRES (en W/m2)
Mini Moy. Maxi Mini Moy. Maxi Moyen Rafale I.R.E.
Minii
Précip. jour Cumul mois Intensité Maxi Mini Moy. Maxi Mini Moy. Maxi Pic maxi du jour Total jour
01/06/2016 12.1° 15.2° 18.7° 11.7° 15.9° 23.3° 2.9km/h dir O 14.5km/h dir O 12.1° 1.2 1.2 1mm/h 1013.8 1014.3 1016.9 72% 85.9% 96% 1201 43 567
02/06/2016 13° 14.4° 15.4° 11.7° 14.5° 16.7° 3.5km/h dir S 20.9km/h dir S 13.1° 17.8 19 55.6mm/h 1011 1012 1014.5 89% 93.3% 96% 281 18 225
03/06/2016 12.9° 14.8° 18.1° 12.8° 15.5° 22.8° 3.2km/h dir O 16.1km/h dir ONO 12.9° 2.2 21.2 2.4mm/h 1011.3 1011.9 1012.6 80% 92.1% 96% 953 33 491
04/06/2016 13.9° 16.4° 20.3° 13.9° 17.4° 23.9° 4km/h dir ONO 17.7km/h dir ONO 13.9° 1.2 22.4 0.8mm/h 1012 1012.8 1015 75% 89.1% 97% 1125 48 515
05/06/2016 13.8° 18.2° 22.9° 12.2° 18.9° 27.2° 4.5km/h dir ONO 24.1km/h dir O 13.9° 0 22.4 1014.4 1015.6 1017.2 67% 84.3% 96% 1209 60 626
06/06/2016 13.4° 19.1° 26.3° 11.7° 19.2° 28.3° 2.6km/h dir NE 12.9km/h dir NO 13.4° 0 22.4 1016.4 1017.3 1018.6 57% 82.4% 96% 1215 67 036
07/06/2016 14.4° 20.7° 27.3° 12.8° 20.8° 30° 3.5km/h dir SSO 20.9km/h dir O 14.4° 0 22.4 1018 1019.2 1020.5 55% 79.3% 96% 1037 74 971
08/06/2016 15.9° 19.9° 25.1° 15° 20.4° 28.9° 5.3km/h dir ONO 30.6km/h dir NO 16° 0.2 22.6 1016.7 1018.6 1020.6 61% 82.4% 96% 1123 67 800
09/06/2016 15.3° 19.3° 24.4° 13.3° 20° 27.2° 10km/h dir NNE 33.8km/h dir NNE 15.3° 0 22.6 1012.8 1015.2 1017.5 48% 76.6% 95% 1065 85 184
10/06/2016 11.7° 19.3° 25.4° 10° 19.2° 28.9° 2.7km/h dir SE 11.3km/h dir SSO 11.8° 0 22.6 1008.8 1010.8 1013.5 47% 72.8% 95% 1044 75 437
11/06/2016 15.7° 18.8° 23.8° 14.4° 19.2° 27.2° 4km/h dir SSE 30.6km/h dir OSO 15.8° 18 40.6 303.2mm/h 1009.3 1011 1012.7 58% 81.6% 95% 1248 59 243
12/06/2016 13.2° 15.8° 20.7° 12.8° 15.7° 22.2° 3.7km/h dir E 20.9km/h dir ONO 13.3° 5.6 46.2 6.8mm/h 1010.8 1012.8 1014.4 71% 87% 94% 956 33 314
13/06/2016 14.9° 16.4° 20.1° 14.4° 16.7° 24.4° 4.5km/h dir SSE 27.4km/h dir NE 14.1° 22.8 69 55.4mm/h 1004.5 1007.4 1011 77% 91.6% 96% 1044 32 032
14/06/2016 14.3° 16.2° 19.9° 13.3° 16.3° 22.8° 4.8km/h dir S 22.5km/h dir SO 14.1° 3.6 72.6 18.8mm/h 1002.7 1004.6 1006.2 63% 84.2% 96% 1011 38 425
15/06/2016 13.3° 16.9° 21.7° 12.2° 17.2° 24.4° 6.3km/h dir S 33.8km/h dir SE 13.1° 4 76.6 5.2mm/h 1000 1001.7 1003.2 52% 78.7% 94% 1313 56 931
16/06/2016 12.8° 15.9° 23.1° 12.2° 16.6° 26.1° 4.5km/h dir S 35.4km/h dir S 11.9° 28.4 105 142.2mm/h 1000.2 1002 1005.5 54% 85.7% 96% 1201 58 399
17/06/2016 12.5° 16.6° 22.7° 12.2° 17.3° 26.1° 6.3km/h dir S 30.6km/h dir S 12.6° 3.4 108.4 34.4mm/h 1005.6 1010.8 1015.5 50% 79.7% 96% 1179 75 716
18/06/2016 13.2° 15.4° 19.9° 12.8° 15.9° 22.8° 3.1km/h dir SSE 27.4km/h dir NO 13.3° 15 123.4 37.4mm/h 1015.5 1018.5 1021.7 65% 87.4% 95% 1097 45 672
19/06/2016 12.6° 15.3° 20° 11.7° 16° 23.9° 5.6km/h dir NNE 33.8km/h dir N 12.6° 3 126.4 20.6mm/h 1021.6 1023.1 1024.3 64% 87.1% 96% 1220 51 266
20/06/2016 9.1° 16.4° 21.8° 7.8° 16.8° 26.1° 3.9km/h dir NNE 20.9km/h dir NNE 9.1° 1 127.4 2.8mm/h 1020.6 1022.5 1024.4 53% 76.6% 96% 1002 72 974
21/06/2016 15.4° 19.4° 26.7° 15° 20° 30.6° 3.5km/h dir SSE 14.5km/h dir SSE 15.4° 5 132.4 4.6mm/h 1020.6 1021.5 1022.6 65% 87.1% 96% 1285 54 859
22/06/2016 15.3° 23.7° 31.6° 14.4° 23.9° 33.9° 2.1km/h dir NNE 12.9km/h dir SO 15.3° 0 132.4 1017.9 1020 1021.6 54% 78.3% 97% 911 95 831
23/06/2016 20.8° 26.7° 32.7° 18.3° 26.4° 35° 7.9km/h dir SE 29km/h dir SSE 20.8° 0 132.4 1015 1017.2 1018.8 44% 61.5% 92% 912 96 359
24/06/2016 17.6° 25.5° 32.1° 14.4° 25.4° 35° 6.4km/h dir SSE 32.2km/h dir OSO 16.8° 10.4 142.8 82.8mm/h 1012.6 1015.6 1017.6 39% 58.2% 92% 896 94 477
25/06/2016 16.5° 20.1° 24.5° 15° 20.6° 28.9° 6.4km/h dir SO 29km/h dir ONO 16.5° 0.2 143 4mm/h 1013.9 1015.3 1017.4 56% 81.3% 96% 1220 70 637
26/06/2016 13.4° 18.6° 23.6° 12.2° 19.1° 27.2° 6.3km/h dir ONO 27.4km/h dir N 13.5° 0 143 1017 1018.5 1020.7 44% 71.1% 96% 1141 81 638
27/06/2016 11.4° 18.6° 24.2° 10° 19° 27.8° 5.3km/h dir ONO 22.5km/h dir OSO 11.4° 0 143 1019.8 1020.9 1022.2 47% 69.7% 93% 1028 91 430
28/06/2016 12.7° 20° 26.3° 11.7° 20.7° 30.6° 3.1km/h dir NE 16.1km/h dir N 12.7° 0 143 1014.7 1017.8 1020.5 53% 75.2% 95% 1172 86 631
29/06/2016 17.5° 22.1° 28.6° 15.6° 23.2° 31.7° 3.9km/h dir ONO 17.7km/h dir 0 17.6° 5.4 148.4 82.2mm/h 1010.8 1014.2 1016.6 50% 74.7% 93% 991 92 314
30/06/2016 18.3° 21.6° 26.7° 17.8° 22.2° 30.6° 3.7km/h dir NNE 14.5km/h dir 0 18.3° 0 148.4 1013.6 1015.1 1016.9 56% 77.2% 94% 1169 73 403

RETOUR ACCUEIL


Date de création : 01/07/2016 : 23:25
Catégorie : ARCHIVES 2002 à 2016 - ANNEES 2010 à 2019 - ANNEE 2016 - JUIN 2016
Page lue 835 fois


Réactions à cet article

Personne n'a encore laissé de commentaire.
Soyez donc le premier !